tititudorancea.com
Station Historical Data
Daily Summary for October 1, 2018 Units:  Metric    English   Both
« Previous Day
Next Day »
Daily Weekly Monthly Yearly Custom
  High: Low: Average:
Temperature: -17.8 °C 0.8 °C 12.1 °C
Dew Point: -17.8 °C -0.4 °C 3 °C
Humidity: Humidity % 25 % 60 %
Wind Speed: 0 km/h 0 km/h 6.8 km/h
Wind Gust: 0 km/h - -
Wind:- - SW
Pressure: 0 hPa 1021.9 hPa -
Precipitation: 0 mm    
Historical Graphs
 
 
Ararat weather Find more about Weather in Ararat, AU


 



 


Tabular Data for October 1, 2018
Time Temperature Dew Point Pressure Wind Wind Speed Wind Gust Humidity Rainfall Rate (Hourly)
-17.8 °C -17.8 °C 0 hPa Calm     Humidity % 0 mm
00:04 5 °C 3.3 °C 1027 hPa Calm     89 % 0 mm
00:09 5.1 °C 3.6 °C 1027 hPa Calm     90 % 0 mm
00:14 5.1 °C 3.6 °C 1027 hPa Calm     90 % 0 mm
00:19 4.9 °C 3.3 °C 1027 hPa Calm     89 % 0 mm
00:24 4.8 °C 3.2 °C 1027 hPa Calm     89 % 0 mm
00:29 4.7 °C 3.1 °C 1027 hPa Calm     89 % 0 mm
00:34 4.6 °C 3.1 °C 1026.6 hPa Calm     90 % 0 mm
00:39 4.7 °C 3.2 °C 1026.6 hPa North 1.9 km/h   90 % 0 mm
00:44 4.7 °C 3.2 °C 1026.6 hPa Calm     90 % 0 mm
00:49 4.7 °C 3.2 °C 1026.6 hPa Calm     90 % 0 mm
00:54 4.6 °C 3.1 °C 1026.6 hPa Calm     90 % 0 mm
00:59 4.4 °C 2.9 °C 1026.6 hPa ESE 1.9 km/h   90 % 0 mm
01:04 4.3 °C 2.8 °C 1026.6 hPa Calm     90 % 0 mm
01:09 4 °C 2.3 °C 1026.6 hPa Calm     89 % 0 mm
01:14 3.7 °C 2.2 °C 1026.3 hPa Calm     90 % 0 mm
01:19 3.4 °C 1.9 °C 1026.3 hPa Calm     90 % 0 mm
01:24 3.3 °C 1.8 °C 1026.3 hPa Calm     90 % 0 mm
01:29 3.1 °C 1.6 °C 1026.3 hPa Calm     90 % 0 mm
01:34 3.1 °C 1.7 °C 1026.3 hPa Calm     91 % 0 mm
01:39 3.1 °C 1.8 °C 1026.3 hPa Calm     91 % 0 mm
01:44 3.2 °C 1.8 °C 1026.3 hPa Calm     91 % 0 mm
01:49 3.2 °C 2.1 °C 1026 hPa Calm     92 % 0 mm
01:54 3.2 °C 1.9 °C 1026 hPa Calm     91 % 0 mm
01:59 3.3 °C 2.1 °C 1026 hPa Calm     92 % 0 mm
02:04 3.5 °C 2.3 °C 1026 hPa North 3.7 km/h 1.6 km/h 92 % 0 mm
02:09 3.7 °C 2.7 °C 1026 hPa ESE 3.7 km/h 0.2 km/h 93 % 0 mm
02:14 3.8 °C 2.6 °C 1026 hPa Calm     92 % 0 mm
02:19 3.9 °C 2.8 °C 1025.6 hPa Calm     93 % 0 mm
02:24 4.1 °C 2.9 °C 1025.6 hPa Calm     92 % 0 mm
02:29 4 °C 2.8 °C 1025.6 hPa Calm     92 % 0 mm
02:34 3.8 °C 2.7 °C 1025.6 hPa Calm     92 % 0 mm
02:39 3.9 °C 2.8 °C 1025.6 hPa Calm     92 % 0 mm
02:44 3.9 °C 2.8 °C 1025.3 hPa Calm     92 % 0 mm
02:49 4 °C 2.9 °C 1025.3 hPa ESE 3.7 km/h 1.3 km/h 93 % 0 mm
02:54 4.1 °C 3 °C 1025.3 hPa ESE 3.7 km/h 1.9 km/h 93 % 0 mm
02:59 4.1 °C 3.1 °C 1025.3 hPa Calm     93 % 0 mm
03:04 4.2 °C 3.1 °C 1025.3 hPa Calm     93 % 0 mm
03:09 4.2 °C 3 °C 1025.3 hPa Calm     92 % 0 mm
03:14 4.2 °C 3 °C 1025.3 hPa Calm     92 % 0 mm
03:19 4.2 °C 3.1 °C 1025.3 hPa Calm     93 % 0 mm
03:24 4.1 °C 2.9 °C 1025.3 hPa Calm     92 % 0 mm
03:29 4 °C 2.8 °C 1025.3 hPa Calm     92 % 0 mm
03:34 3.9 °C 2.9 °C 1025.3 hPa ESE 3.7 km/h 2.1 km/h 93 % 0 mm
03:39 3.9 °C 2.7 °C 1025.3 hPa Calm     92 % 0 mm
03:44 3.7 °C 2.6 °C 1025.3 hPa Calm     92 % 0 mm
03:49 3.4 °C 2.1 °C 1025.3 hPa Calm     91 % 0 mm
03:54 2.7 °C 1.2 °C 1025.3 hPa ESE 3.7 km/h 1.9 km/h 90 % 0 mm
03:59 2.2 °C 0.7 °C 1025.3 hPa ESE 3.7 km/h 1.9 km/h 90 % 0 mm
04:04 1.7 °C 0.4 °C 1025.3 hPa ESE 1.9 km/h   91 % 0 mm
04:09 1.4 °C 0.1 °C 1025.6 hPa Calm   0.2 km/h 91 % 0 mm
04:14 1.1 °C -0.2 °C 1025.6 hPa Calm     91 % 0 mm
04:19 0.9 °C -0.4 °C 1025.6 hPa Calm     91 % 0 mm
04:24 0.8 °C -0.4 °C 1025.6 hPa Calm     92 % 0 mm
04:29 0.8 °C -0.4 °C 1025.6 hPa Calm     92 % 0 mm
04:34 0.9 °C -0.3 °C 1025.6 hPa Calm     92 % 0 mm
04:39 0.8 °C -0.3 °C 1025.6 hPa Calm     92 % 0 mm
04:44 0.8 °C -0.2 °C 1025.6 hPa Calm     93 % 0 mm
04:49 0.8 °C -0.2 °C 1025.6 hPa Calm     93 % 0 mm
04:54 0.8 °C -0.2 °C 1025.6 hPa Calm     93 % 0 mm
04:59 0.9 °C -0.1 °C 1025.6 hPa Calm     93 % 0 mm
05:04 1 °C 0 °C 1025.3 hPa Calm     93 % 0 mm
05:09 1.2 °C 0.4 °C 1025.3 hPa Calm     94 % 0 mm
05:14 1.2 °C 0.2 °C 1025.3 hPa Calm     93 % 0 mm
05:19 1.4 °C 0.6 °C 1025.6 hPa ESE 3.7 km/h 2.1 km/h 94 % 0 mm
05:24 1.6 °C 0.7 °C 1025.3 hPa Calm     94 % 0 mm
05:29 1.7 °C 0.7 °C 1025.3 hPa ESE 1.9 km/h   93 % 0 mm
05:34 1.8 °C 0.8 °C 1025.3 hPa ESE 3.7 km/h 1.9 km/h 93 % 0 mm
05:39 1.9 °C 1 °C 1025.3 hPa ESE 3.7 km/h 3.4 km/h 94 % 0 mm
05:44 2.4 °C 1.7 °C 1025.3 hPa ESE 5.6 km/h 2.1 km/h 95 % 0 mm
05:49 3 °C 2.3 °C 1025.6 hPa ESE 7.4 km/h 3.9 km/h 95 % 0 mm
05:54 3.6 °C 2.9 °C 1025.6 hPa ESE 6.4 km/h 4 km/h 95 % 0 mm
05:59 3.6 °C 2.6 °C 1025.6 hPa ESE 1.9 km/h   93 % 0 mm
06:04 3.4 °C 2.4 °C 1025.6 hPa ESE 1.6 km/h   93 % 0 mm
06:09 3.4 °C 2.4 °C 1025.6 hPa ESE 1.9 km/h 1.8 km/h 93 % 0 mm
06:14 3.5 °C 2.6 °C 1025.6 hPa ESE 3.7 km/h 0.8 km/h 94 % 0 mm
06:19 3.4 °C 2.4 °C 1025.6 hPa ESE 1.9 km/h   93 % 0 mm
06:24 3.4 °C 2.4 °C 1025.6 hPa ESE 3.2 km/h 1.1 km/h 93 % 0 mm
06:29 3.4 °C 2.5 °C 1025.6 hPa ESE 1.6 km/h 0.3 km/h 94 % 0 mm
06:34 3.5 °C 2.6 °C 1026 hPa ESE 3.7 km/h 2.4 km/h 94 % 0 mm
06:39 3.6 °C 2.7 °C 1026 hPa ESE 3.7 km/h 2.3 km/h 94 % 0 mm
06:44 3.7 °C 2.8 °C 1025.6 hPa ESE 3.7 km/h 1.1 km/h 94 % 0 mm
06:49 3.7 °C 2.8 °C 1026 hPa Calm     94 % 0 mm
06:54 3.9 °C 3.1 °C 1026 hPa ESE 6.4 km/h 4.2 km/h 94 % 0 mm
06:59 4.3 °C 3.4 °C 1026 hPa ESE 5.6 km/h 3.1 km/h 94 % 0 mm
07:04 4.8 °C 4.1 °C 1025.6 hPa ESE 3.7 km/h 3.4 km/h 95 % 0 mm
07:09 5.3 °C 4.6 °C 1025.6 hPa ESE 5.6 km/h 3.4 km/h 95 % 0 mm
07:14 5.8 °C 5.1 °C 1025.6 hPa ESE 6.4 km/h 3.4 km/h 95 % 0 mm
07:19 6.3 °C 5.4 °C 1025.6 hPa ESE 8 km/h 6.3 km/h 94 % 0 mm
07:24 6.7 °C 5.6 °C 1025.6 hPa ESE 8 km/h 4.7 km/h 93 % 0 mm
07:29 7.1 °C 5.9 °C 1026 hPa ESE 7.4 km/h 3.4 km/h 92 % 0 mm
07:34 7.6 °C 6.2 °C 1026 hPa ESE 7.4 km/h 6.6 km/h 91 % 0 mm
07:39 8 °C 6.3 °C 1026 hPa ESE 7.4 km/h 4.8 km/h 89 % 0 mm
07:44 8.5 °C 6.6 °C 1026 hPa ESE 8 km/h 6.6 km/h 88 % 0 mm
07:49 8.9 °C 6.4 °C 1026 hPa ESE 11.1 km/h 8.4 km/h 84 % 0 mm
07:54 9.4 °C 6.5 °C 1026 hPa ESE 13 km/h 5.3 km/h 82 % 0 mm
07:59 9.8 °C 6.7 °C 1026 hPa ESE 6.4 km/h 3.4 km/h 81 % 0 mm
08:04 10.2 °C 6.7 °C 1026 hPa ESE 9.3 km/h 8 km/h 79 % 0 mm
08:09 10.5 °C 6.8 °C 1026 hPa ESE 6.4 km/h 3.2 km/h 78 % 0 mm
08:14 10.8 °C 6.9 °C 1026 hPa ESE 7.4 km/h 4.2 km/h 77 % 0 mm
08:19 11.1 °C 6.8 °C 1026 hPa ESE 9.3 km/h 7.9 km/h 75 % 0 mm
08:24 11.5 °C 6.8 °C 1026 hPa ESE 9.3 km/h 4.3 km/h 73 % 0 mm
08:29 12.1 °C 7.2 °C 1026 hPa ESE 9.7 km/h 4.5 km/h 72 % 0 mm
08:34 12.7 °C 6.9 °C 1026 hPa ESE 9.3 km/h 7.4 km/h 68 % 0 mm
08:39 13.1 °C 7.1 °C 1026 hPa ESE 11.1 km/h 10 km/h 67 % 0 mm
08:42 13.3 °C 6.8 °C 1026 hPa ENE 18.5 km/h 14 km/h 65 % 0 mm
08:49 13.8 °C 6.2 °C 1026 hPa ENE 18.5 km/h 6 km/h 60 % 0 mm
08:54 14.1 °C 5.7 °C 1026 hPa NNE 18.5 km/h 9 km/h 57 % 0 mm
08:59 14.3 °C 5.7 °C 1026 hPa NNE 14.8 km/h 11.6 km/h 56 % 0 mm
09:04 14.6 °C 5.1 °C 1026 hPa North 22.2 km/h 8.7 km/h 53 % 0 mm
09:09 14.8 °C 4.7 °C 1026 hPa North 18.5 km/h 10.5 km/h 51 % 0 mm
09:14 14.9 °C 5.1 °C 1026 hPa North 13 km/h 12.4 km/h 52 % 0 mm
09:19 14.8 °C 4.8 °C 1026 hPa NNW 18.5 km/h 11.6 km/h 51 % 0 mm
09:24 14.8 °C 5.1 °C 1026 hPa North 18.5 km/h 11.7 km/h 52 % 0 mm
09:29 14.9 °C 5.1 °C 1026 hPa North 18.5 km/h 12.6 km/h 52 % 0 mm
09:34 15.1 °C 4.4 °C 1026 hPa North 24.1 km/h 14.8 km/h 49 % 0 mm
09:39 15.3 °C 4.9 °C 1026 hPa North 14.8 km/h 8.9 km/h 50 % 0 mm
09:44 15.4 °C 4.5 °C 1026 hPa NNE 27.4 km/h 12.6 km/h 48 % 0 mm
09:49 15.6 °C 4.6 °C 1026 hPa NNE 20.4 km/h 14.2 km/h 48 % 0 mm
09:54 15.6 °C 4.9 °C 1026 hPa North 18.5 km/h 10.8 km/h 49 % 0 mm
09:59 15.4 °C 3.9 °C 1026 hPa North 27.8 km/h 20.9 km/h 46 % 0 mm
10:04 15.3 °C 4.6 °C 1026 hPa North 19.3 km/h 11.6 km/h 49 % 0 mm
10:09 15.6 °C 4.3 °C 1026 hPa North 20.4 km/h 18.5 km/h 47 % 0 mm
10:14 15.8 °C 4.5 °C 1026 hPa NNW 18.5 km/h 11.6 km/h 47 % 0 mm
10:19 16.1 °C 3.8 °C 1025.6 hPa NE 22.2 km/h 15.9 km/h 44 % 0 mm
10:24 16.3 °C 4.3 °C 1025.6 hPa NNE 20.4 km/h 14.6 km/h 45 % 0 mm
10:29 16.4 °C 4.1 °C 1025.6 hPa NNE 18.5 km/h 11.3 km/h 44 % 0 mm
10:34 16.6 °C 3.9 °C 1025.6 hPa NNW 16.7 km/h 15.8 km/h 43 % 0 mm
10:39 16.5 °C 4.2 °C 1025.6 hPa North 18.5 km/h 11.7 km/h 44 % 0 mm
10:44 16.5 °C 3.2 °C 1025.6 hPa NNW 20.4 km/h 11.7 km/h 41 % 0 mm
10:49 16.5 °C 3.2 °C 1025.6 hPa North 16.7 km/h 10.8 km/h 41 % 0 mm
10:54 16.4 °C 3.2 °C 1025.6 hPa North 25.9 km/h 12.1 km/h 41 % 0 mm
10:59 16.4 °C 3.2 °C 1025.3 hPa North 20.9 km/h 13.2 km/h 41 % 0 mm
11:04 16.8 °C 4.1 °C 1025.3 hPa NNW 20.4 km/h 10.5 km/h 43 % 0 mm
11:09 16.9 °C 4.3 °C 1025.3 hPa NNW 18.5 km/h 11.4 km/h 43 % 0 mm
11:14 17.1 °C 3.7 °C 1025.3 hPa North 19.3 km/h 14 km/h 41 % 0 mm
11:19 16.8 °C 3.8 °C 1024.9 hPa NW 18.5 km/h 12.2 km/h 42 % 0 mm
11:24 17.1 °C 4.1 °C 1024.9 hPa North 14.8 km/h 11.6 km/h 42 % 0 mm
11:29 17.5 °C 3.4 °C 1024.9 hPa NE 20.4 km/h 11.7 km/h 39 % 0 mm
11:34 17.6 °C 3.8 °C 1024.6 hPa NNW 20.4 km/h 10.6 km/h 40 % 0 mm
11:39 17.5 °C 3.7 °C 1024.6 hPa North 18.5 km/h 11.9 km/h 40 % 0 mm
11:44 17.8 °C 3.7 °C 1024.6 hPa NNW 16.7 km/h 8.9 km/h 39 % 0 mm
11:49 18.1 °C 3.5 °C 1024.6 hPa NNW 18.5 km/h 9.8 km/h 38 % 0 mm
11:54 18.1 °C 3.5 °C 1024.6 hPa NW 14.8 km/h 11.3 km/h 38 % 0 mm
11:59 17.9 °C 3.8 °C 1024.3 hPa NNW 18.5 km/h 8.9 km/h 39 % 0 mm
12:04 18.1 °C 3.6 °C 1024.3 hPa NNW 18.5 km/h 11.4 km/h 38 % 0 mm
12:09 18.3 °C 3.4 °C 1024.3 hPa NNE 25.9 km/h 16.6 km/h 37 % 0 mm
12:14 18.3 °C 3 °C 1024.3 hPa North 18.5 km/h 11.6 km/h 36 % 0 mm
12:19 18.4 °C 2.7 °C 1024.3 hPa North 20.4 km/h 11.9 km/h 35 % 0 mm
12:24 18.7 °C 3.3 °C 1023.9 hPa North 13 km/h 9 km/h 36 % 0 mm
12:28 18.9 °C 3.5 °C 1023.9 hPa North 14.8 km/h 9.7 km/h 36 % 0 mm
12:34 18.9 °C 3.1 °C 1023.9 hPa North 22.2 km/h 11.3 km/h 35 % 0 mm
12:39 18.9 °C 3.6 °C 1023.9 hPa NNE 20.4 km/h 10.9 km/h 36 % 0 mm
12:44 19 °C 3.2 °C 1023.9 hPa North 22.5 km/h 14.8 km/h 35 % 0 mm
12:49 18.9 °C 2.3 °C 1023.6 hPa NNW 16.7 km/h 10.9 km/h 33 % 0 mm
12:54 19.1 °C 2.9 °C 1023.6 hPa North 18.5 km/h 12.1 km/h 34 % 0 mm
12:59 19.2 °C 2.1 °C 1023.6 hPa NNE 14.8 km/h 8.9 km/h 32 % 0 mm
13:04 19.4 °C 3.1 °C 1023.6 hPa North 16.7 km/h 11.1 km/h 34 % 0 mm
13:09 19.4 °C 2.3 °C 1023.6 hPa NW 24.1 km/h 13.7 km/h 32 % 0 mm
13:14 19.5 °C 2.8 °C 1023.6 hPa North 13 km/h 7.4 km/h 33 % 0 mm
13:19 19.8 °C 1.2 °C 1023.6 hPa North 19.3 km/h 10.5 km/h 29 % 0 mm
13:24 20 °C 1.9 °C 1023.2 hPa North 18.5 km/h 4.7 km/h 30 % 0 mm
13:29 20.2 °C 2.1 °C 1023.2 hPa North 25.9 km/h 9.8 km/h 30 % 0 mm
13:34 20.3 °C 1.7 °C 1023.2 hPa North 16.7 km/h 8 km/h 29 % 0 mm
13:39 20.2 °C 1.1 °C 1022.9 hPa NE 16.7 km/h 12.2 km/h 28 % 0 mm
13:44 20.2 °C 1.6 °C 1022.9 hPa NNE 9.7 km/h 4.7 km/h 29 % 0 mm
13:49 20.4 °C 2.3 °C 1022.9 hPa North 20.4 km/h 13.2 km/h 30 % 0 mm
13:54 20.7 °C 1.5 °C 1022.9 hPa North 14.8 km/h 9.7 km/h 28 % 0 mm
13:59 20.7 °C 2.1 °C 1022.9 hPa North 18.5 km/h 5.6 km/h 29 % 0 mm
14:04 20.6 °C 1.4 °C 1022.9 hPa North 16.1 km/h 5.1 km/h 28 % 0 mm
14:09 20.5 °C 3.2 °C 1022.9 hPa North 14.8 km/h 7.4 km/h 32 % 0 mm
14:14 20.4 °C -0.3 °C 1022.9 hPa NNW 14.8 km/h 11.4 km/h 25 % 0 mm
14:19 20.6 °C 0.4 °C 1022.6 hPa North 16.7 km/h 9.8 km/h 26 % 0 mm
14:24 20.8 °C 1.6 °C 1022.6 hPa North 17.7 km/h 10.3 km/h 28 % 0 mm
14:29 20.8 °C 1.1 °C 1022.6 hPa North 18.5 km/h 11.1 km/h 27 % 0 mm
14:34 20.7 °C 1.5 °C 1022.6 hPa North 16.1 km/h 10.5 km/h 28 % 0 mm
14:39 20.5 °C 1.8 °C 1022.6 hPa NW 18.5 km/h 10.9 km/h 29 % 0 mm
14:44 20.6 °C 1.4 °C 1022.6 hPa North 11.1 km/h 7.9 km/h 28 % 0 mm
14:49 20.8 °C 1.1 °C 1022.6 hPa NNW 11.3 km/h 10.8 km/h 27 % 0 mm
14:54 21 °C 1.3 °C 1022.6 hPa North 5.6 km/h 4.8 km/h 27 % 0 mm
14:59 21.1 °C 0.3 °C 1022.6 hPa NNW 11.1 km/h 3.9 km/h 25 % 0 mm
15:04 21.2 °C 0.9 °C 1022.6 hPa NNW 9.7 km/h 8.4 km/h 26 % 0 mm
15:09 21.3 °C 1 °C 1022.6 hPa NNW 14.8 km/h 7.2 km/h 26 % 0 mm
15:14 21 °C 0.7 °C 1022.6 hPa NNW 13 km/h 6.8 km/h 26 % 0 mm
15:19 20.9 °C 0.7 °C 1022.6 hPa NNW 13 km/h 5 km/h 26 % 0 mm
15:24 21.1 °C 0.8 °C 1022.6 hPa North 20.4 km/h 10.8 km/h 26 % 0 mm
15:29 21.1 °C 0.3 °C 1022.6 hPa North 9.3 km/h 6.6 km/h 25 % 0 mm
15:34 21.1 °C 0.8 °C 1022.6 hPa North 14.8 km/h 5.8 km/h 26 % 0 mm
15:39 21.2 °C 0.9 °C 1022.6 hPa NNW 11.1 km/h 9.2 km/h 26 % 0 mm
15:44 21.2 °C 0.3 °C 1022.6 hPa NNW 8 km/h 5.3 km/h 25 % 0 mm
15:49 21.2 °C 0.9 °C 1022.6 hPa NNW 9.7 km/h 4.7 km/h 26 % 0 mm
15:54 21.1 °C 0.8 °C 1022.2 hPa North 9.3 km/h 4.8 km/h 26 % 0 mm
15:59 20.9 °C 0.7 °C 1022.6 hPa North 7.4 km/h 5.3 km/h 26 % 0 mm
16:04 21.1 °C 0.8 °C 1022.2 hPa North 9.3 km/h 6.1 km/h 26 % 0 mm
16:09 20.7 °C 0.5 °C 1022.6 hPa NNW 9.3 km/h 3.9 km/h 26 % 0 mm
16:14 20.5 °C 0.3 °C 1022.6 hPa North 6.4 km/h 5.8 km/h 26 % 0 mm
16:19 20.3 °C 0.1 °C 1022.6 hPa NNW 3.7 km/h 1.6 km/h 26 % 0 mm
16:24 20.3 °C 0.1 °C 1022.6 hPa NNW 7.4 km/h 3.9 km/h 26 % 0 mm
16:29 20.1 °C 0.5 °C 1022.6 hPa NNW 5.6 km/h 4.5 km/h 27 % 0 mm
16:34 20 °C 1.4 °C 1022.2 hPa NNW 5.6 km/h 3.5 km/h 29 % 0 mm
16:39 20 °C 0.4 °C 1022.2 hPa NNW 3.7 km/h 0.8 km/h 27 % 0 mm
16:44 20.1 °C 1.5 °C 1022.2 hPa NNW 3.7 km/h 1 km/h 29 % 0 mm
16:49 20.1 °C 0.5 °C 1022.2 hPa NNW 7.4 km/h 4.8 km/h 27 % 0 mm
16:54 20.2 °C 0.6 °C 1022.2 hPa NNW 5.6 km/h 2.9 km/h 27 % 0 mm
16:59 20.2 °C 0.6 °C 1021.9 hPa NNW 5.6 km/h 1 km/h 27 % 0 mm
17:04 20.2 °C 0.6 °C 1021.9 hPa NNW 5.6 km/h 4.8 km/h 27 % 0 mm
17:09 20.1 °C 0.5 °C 1022.2 hPa NNW 7.4 km/h 4.3 km/h 27 % 0 mm
17:14 20 °C 0.4 °C 1021.9 hPa NNW 7.4 km/h 5.5 km/h 27 % 0 mm
17:19 19.9 °C 1.3 °C 1021.9 hPa NNW 5.6 km/h 2.6 km/h 29 % 0 mm
17:24 19.8 °C 0.3 °C 1022.2 hPa NNW 5.6 km/h 1.4 km/h 27 % 0 mm
17:29 19.8 °C 0.7 °C 1022.2 hPa NNW 3.7 km/h 2.9 km/h 28 % 0 mm
17:34 19.7 °C 1.2 °C 1022.2 hPa NNW 3.7 km/h 1.6 km/h 29 % 0 mm
17:39 19.8 °C 1.7 °C 1022.2 hPa NNW 1.6 km/h 0.3 km/h 30 % 0 mm
17:44 20 °C 1.4 °C 1022.2 hPa NNW 5.6 km/h 3.9 km/h 29 % 0 mm
17:49 20.1 °C 0.9 °C 1022.2 hPa NNW 5.6 km/h 1.4 km/h 28 % 0 mm
17:54 20 °C 1.4 °C 1022.2 hPa NNW 3.2 km/h 1.9 km/h 29 % 0 mm
17:59 19.9 °C 1.3 °C 1022.2 hPa North 5.6 km/h 0.2 km/h 29 % 0 mm
18:04 19.8 °C 1.3 °C 1022.6 hPa NNW 1.9 km/h 1.1 km/h 29 % 0 mm
18:09 19.7 °C 1.1 °C 1022.6 hPa NNW 3.7 km/h 0.5 km/h 29 % 0 mm
18:14 19.5 °C 1.4 °C 1022.6 hPa NNW 1.9 km/h 1.3 km/h 30 % 0 mm
18:19 19.3 °C 2.2 °C 1022.6 hPa NNW 3.7 km/h 2.6 km/h 32 % 0 mm
18:24 19.2 °C 2.5 °C 1022.6 hPa NNW 5.6 km/h 2.3 km/h 33 % 0 mm
18:29 18.9 °C 2.3 °C 1022.6 hPa NNW 1.9 km/h 0.3 km/h 33 % 0 mm
18:34 18.5 °C 2.7 °C 1022.6 hPa Calm     35 % 0 mm
18:39 17.8 °C 2.9 °C 1022.9 hPa Calm     37 % 0 mm
18:44 17.3 °C 2.9 °C 1022.9 hPa Calm     38 % 0 mm
18:49 16.9 °C 2.8 °C 1022.9 hPa Calm     39 % 0 mm
18:54 16.6 °C 2.6 °C 1022.9 hPa Calm     39 % 0 mm
18:59 16.4 °C 2.8 °C 1022.9 hPa Calm     40 % 0 mm
19:04 16 °C 3.1 °C 1022.9 hPa Calm     42 % 0 mm
19:09 15.6 °C 3.4 °C 1022.9 hPa Calm     44 % 0 mm
19:14 15.2 °C 3.3 °C 1022.9 hPa Calm     45 % 0 mm
19:19 14.8 °C 3.6 °C 1022.9 hPa Calm     47 % 0 mm
19:24 14.5 °C 3.6 °C 1022.9 hPa Calm     48 % 0 mm
19:29 14.3 °C 3.4 °C 1022.9 hPa Calm     48 % 0 mm
19:34 14.1 °C 3.6 °C 1022.9 hPa Calm     49 % 0 mm
19:39 13.9 °C 3.9 °C 1022.9 hPa Calm     51 % 0 mm
19:44 13.8 °C 4.1 °C 1022.9 hPa Calm     52 % 0 mm
19:49 13.6 °C 3.9 °C 1022.9 hPa Calm     52 % 0 mm
19:54 13.4 °C 4.1 °C 1023.2 hPa Calm     53 % 0 mm
19:59 13.4 °C 4.3 °C 1022.9 hPa NNW 3.7 km/h 1.3 km/h 54 % 0 mm
20:04 13.4 °C 4.3 °C 1023.2 hPa Calm     54 % 0 mm
20:09 13.4 °C 4.3 °C 1023.2 hPa Calm     54 % 0 mm
20:14 13.4 °C 4.1 °C 1023.2 hPa Calm     53 % 0 mm
20:19 13.5 °C 4.6 °C 1023.2 hPa NNW 1.9 km/h   55 % 0 mm
20:24 13.4 °C 4.8 °C 1023.2 hPa Calm     56 % 0 mm
20:29 13.4 °C 4.8 °C 1023.2 hPa Calm     56 % 0 mm
20:34 13.3 °C 4.7 °C 1023.2 hPa Calm     56 % 0 mm
20:39 13.2 °C 4.9 °C 1023.2 hPa Calm     57 % 0 mm
20:44 13.2 °C 4.9 °C 1023.6 hPa Calm     57 % 0 mm
20:49 13.2 °C 4.9 °C 1023.6 hPa Calm     57 % 0 mm
20:54 13.1 °C 4.7 °C 1023.2 hPa Calm     57 % 0 mm
20:59 13 °C 4.7 °C 1023.2 hPa Calm     57 % 0 mm
21:04 13 °C 4.7 °C 1023.6 hPa Calm     57 % 0 mm
21:09 13.1 °C 5 °C 1023.6 hPa Calm     58 % 0 mm
21:14 12.8 °C 5 °C 1023.6 hPa Calm     59 % 0 mm
21:19 12.6 °C 5 °C 1023.6 hPa Calm     60 % 0 mm
21:24 12.2 °C 5.2 °C 1023.6 hPa Calm     62 % 0 mm
21:29 11.9 °C 5.1 °C 1023.6 hPa Calm     63 % 0 mm
21:34 11.8 °C 5.2 °C 1023.6 hPa Calm     64 % 0 mm
21:39 11.7 °C 5.1 °C 1023.6 hPa Calm     64 % 0 mm
21:44 11.7 °C 5.1 °C 1023.6 hPa Calm     64 % 0 mm
21:49 11.6 °C 5.2 °C 1023.6 hPa Calm     65 % 0 mm
21:54 11.6 °C 5.2 °C 1023.2 hPa Calm     65 % 0 mm
21:59 11.7 °C 5.3 °C 1023.2 hPa Calm     65 % 0 mm
22:04 11.8 °C 5.4 °C 1023.2 hPa Calm     65 % 0 mm
22:09 11.9 °C 5.3 °C 1023.2 hPa Calm     64 % 0 mm
22:14 12 °C 5.4 °C 1022.9 hPa Calm     64 % 0 mm
22:19 12.1 °C 5.4 °C 1022.9 hPa Calm     64 % 0 mm
22:24 12.1 °C 5.7 °C 1022.9 hPa Calm     65 % 0 mm
22:29 12 °C 5.4 °C 1022.9 hPa Calm     64 % 0 mm
22:34 11.9 °C 5.5 °C 1022.9 hPa Calm     65 % 0 mm
22:39 11.8 °C 5.6 °C 1022.9 hPa Calm     66 % 0 mm
22:44 11.8 °C 5.6 °C 1022.9 hPa Calm     66 % 0 mm
22:49 11.6 °C 5.4 °C 1022.9 hPa Calm     66 % 0 mm
22:54 11.6 °C 5.4 °C 1022.9 hPa Calm     66 % 0 mm
22:59 11.6 °C 5.4 °C 1022.6 hPa Calm     66 % 0 mm
23:04 11.5 °C 5.4 °C 1022.6 hPa Calm     66 % 0 mm
23:09 11.5 °C 5.6 °C 1022.6 hPa NNW 3.7 km/h 1.1 km/h 67 % 0 mm
23:14 11.4 °C 5.5 °C 1022.9 hPa Calm     67 % 0 mm
23:16 11.4 °C 5.5 °C 1022.6 hPa North 1.9 km/h 0.5 km/h 67 % 0 mm
23:29 11.6 °C 5.4 °C 1022.6 hPa North 1.9 km/h   66 % 0 mm
23:34 11.7 °C 5.5 °C 1022.6 hPa Calm     66 % 0 mm
23:39 11.8 °C 5.7 °C 1022.6 hPa Calm     66 % 0 mm
23:44 11.9 °C 5.3 °C 1022.6 hPa Calm     64 % 0 mm
23:49 12.1 °C 5.5 °C 1022.6 hPa Calm     64 % 0 mm
23:54 12.2 °C 5.6 °C 1022.6 hPa Calm     64 % 0 mm
23:59 12.2 °C 5.6 °C 1022.6 hPa Calm     64 % 0 mm
Ararat Weather
Compliments of Weather Underground - 2.25 mb
Click here to send mail.


ABOUT

Live weather data from Ararat, Victoria, Australia, 3377
Data uploaded from Cumulus every 5 minutes to Weather Underground.
This site then downloads the raw data for formatting and display.
Metric and imperial data can be displayed. Graphs and historical data available.
Includes Sun and Moon times and rain image live from BOM.

Check out Ararat Weather on Facebook, Twitter and Google +

Help support ongoing costs by checking out the ads





Follow @AraratWeather